< < Back
Terminal Aerodrome Forecast


Current Version              Previous Versions:   1  2  3  4  5  6  7  8  9  

Terminal Aerodrome Forecast

987
FTUS42 KJAX 310810 AAA
TAFGNV
TAF AMD
KGNV 310810Z 3108/0106 VRB03KT P6SM SCT004 BKN120
      TEMPO 3108/3110 OVC004
     FM311800 20007KT P6SM VCTS SCT025CB BKN040
     FM010000 20004KT P6SM SCT020 BKN100=

Latest METAR

314
SAUS70 KWBC 310800 RRL
MTRGNV
METAR KGNV 310753Z AUTO 00000KT 9SM OVC005 24/23 A2999 RMK AO2 SLP154
T02390233


USA.gov is the U.S. government's official web portal to all federal, state and local government web resources and services.